Аэропорт: Брянск. Брянск

ICAO: UUBP

METAR:
2019/03/24 15:00
UUBP 241500Z 31006MPS 9999 SCT026 08/M06 Q1009 R16/CLRD70 NOSIG RMK QFE738/0985
METAR:
2010/09/15 10:45
TAF TAF UUBP 151045Z 1512/1524 18005G10MPS 9999 SCT030